FW5313 Weather Reports


Display with metric or nautical units.
time (UTC)temp
F
wind
direction
speed
MPH
gust
MPH
rain 1hr
in
rain 24hr
in
rain mn
in
humidity
%
barometer
mb
20260903100546 57 0 0.0 1.0 0.00 0.20 0.20 98 1013.8
20260903095542 56 295 0.0 2.0 0.00 0.20 0.20 98 1013.8
20260903095046 57 0 0.0 2.0 0.00 0.20 0.20 98 1013.8
20260903094603 57 163 0.0 2.0 0.00 0.20 0.20 98 1013.7
20260903094045 56 0 0.0 1.0 0.00 0.20 0.20 98 1013.7
20260903093545 56 0 0.0 3.0 0.00 0.20 0.20 97 1013.8
20260903093125 56 349 0.0 3.0 0.00 0.20 0.20 97 1013.7
20260903092545 56 0 0.0 2.0 0.00 0.20 0.20 97 1013.8
20260903092042 57 0 0.0 2.0 0.00 0.20 0.20 97 1013.8
20260903091559 56 0 0.0 1.0 0.00 0.20 0.20 97 1013.9
20260903091046 57 324 0.0 1.0 0.00 0.20 0.20 97 1014.0
20260903090544 57 324 0.0 1.0 0.00 0.20 0.20 97 1014.0
20260903090055 57 0 0.0 1.0 0.01 0.20 0.20 97 1014.1
20260903085542 57 324 0.0 1.0 0.01 0.20 0.20 97 1014.0
20260903085043 57 324 0.0 1.0 0.02 0.20 0.20 97 1013.9
20260903084600 57 0 0.0 0.0 0.02 0.20 0.20 97 1014.0
20260903084045 57 0 0.0 1.0 0.02 0.20 0.20 97 1014.0
20260903083543 57 0 0.0 1.0 0.03 0.20 0.20 97 1014.0
20260903083101 57 325 0.0 1.0 0.03 0.20 0.20 97 1014.0
20260903082545 57 324 0.0 1.0 0.03 0.20 0.20 97 1014.1
20260903082045 57 0 0.0 1.0 0.03 0.20 0.20 97 1014.3
20260903081556 56 304 0.0 2.0 0.04 0.20 0.20 97 1014.4
20260903081044 56 0 0.0 2.0 0.04 0.20 0.20 97 1014.4
20260903080545 56 330 0.0 2.0 0.04 0.20 0.20 97 1014.2
20260903080058 56 297 0.0 2.0 0.03 0.19 0.19 97 1014.2
20260903075548 57 290 0.0 2.0 0.03 0.19 0.19 97 1014.3
20260903075048 57 305 0.0 2.0 0.02 0.18 0.18 97 1014.2
20260903074557 57 335 0.0 1.0 0.02 0.18 0.18 97 1014.3
20260903074046 57 338 0.0 1.0 0.02 0.18 0.18 97 1014.3
20260903073545 57 0 0.0 3.0 0.01 0.17 0.17 97 1014.3
20260903073056 57 307 1.0 3.0 0.01 0.17 0.17 97 1014.5
20260903072545 57 327 0.0 2.0 0.01 0.17 0.17 97 1014.4
20260903072045 57 327 0.0 2.0 0.01 0.17 0.17 97 1014.3
20260903071632 57 359 0.0 2.0 0.00 0.16 0.16 97 1014.5
20260903071045 56 328 0.0 2.0 0.00 0.16 0.16 97 1014.7
20260903070548 57 328 0.0 3.0 0.00 0.16 0.16 97 1014.6
20260903070103 57 0 1.0 3.0 0.00 0.16 0.16 97 1014.7
20260903065547 57 0 0.0 2.0 0.00 0.16 0.16 97 1014.6
20260903065042 57 0 0.0 2.0 0.00 0.16 0.16 97 1014.8
20260903064604 57 324 0.0 2.0 0.00 0.16 0.16 97 1015.0
20260903064044 57 0 0.0 2.0 0.01 0.16 0.16 97 1015.0
20260903063546 57 324 0.0 2.0 0.03 0.16 0.16 97 1015.1
20260903063106 57 324 0.0 2.0 0.09 0.16 0.16 97 1015.2
20260903062545 57 324 0.0 2.0 0.10 0.16 0.16 97 1015.1
20260903062045 57 341 1.0 2.0 0.13 0.16 0.16 97 1015.0
20260903061608 57 338 0.0 2.0 0.13 0.16 0.16 96 1015.0
20260903061044 57 340 1.0 5.0 0.13 0.16 0.16 96 1015.1
20260903060545 57 355 1.0 5.0 0.15 0.16 0.16 96 1015.1
20260903055542 57 289 1.0 3.0 0.16 0.17 0.16 96 1015.4
20260903055047 57 313 1.0 3.0 0.16 0.17 0.16 96 1015.4
20260903054605 57 312 1.0 3.0 0.16 0.17 0.16 96 1015.4
20260903054045 57 334 0.0 3.0 0.15 0.16 0.15 96 1015.5
20260903053548 57 327 0.0 2.0 0.13 0.14 0.13 96 1015.7
20260903053057 57 327 1.0 2.0 0.07 0.08 0.07 95 1015.6
20260903052545 58 327 1.0 4.0 0.06 0.07 0.06 95 1015.6
20260903052045 58 324 0.0 4.0 0.03 0.04 0.03 95 1015.6
20260903051602 58 325 0.0 4.0 0.03 0.04 0.03 94 1015.7
20260903051045 59 327 0.0 1.0 0.03 0.04 0.03 94 1015.6
20260903050544 59 326 0.0 3.0 0.01 0.02 0.01 93 1015.6
20260903050115 59 0 1.0 3.0 0.00 0.01 0.00 92 1015.9
20260903045545 59 306 1.0 2.0 0.00 0.05 0.00 92 1015.9
20260903045044 59 309 0.0 2.0 0.00 0.05 0.00 92 1015.8
20260903044604 59 308 1.0 2.0 0.00 0.05 0.00 92 1015.9
20260903044043 59 279 1.0 2.0 0.00 0.05 0.00 92 1015.9
20260903043545 59 260 0.0 3.0 0.00 0.05 0.00 92 1015.9
20260903043058 59 259 1.0 3.0 0.00 0.05 0.00 92 1015.8
20260903042547 59 307 0.0 3.0 0.00 0.05 0.00 92 1015.8
20260903042049 59 326 1.0 2.0 0.00 0.05 0.00 92 1015.9
20260903041611 59 338 1.0 4.0 0.00 0.05 0.00 92 1015.9
20260903041045 59 257 1.0 4.0 0.00 0.05 0.00 92 1015.9
20260903040546 59 312 1.0 4.0 0.00 0.05 0.00 92 1015.7
20260903040100 59 312 1.0 3.0 0.00 0.05 0.00 92 1015.8
20260903035544 59 323 1.0 4.0 0.00 0.05 0.05 93 1016.0
20260903035045 59 323 1.0 6.0 0.00 0.05 0.05 93 1015.9
20260903034608 59 321 1.0 6.0 0.00 0.05 0.05 93 1015.9
20260903034045 59 359 1.0 7.0 0.00 0.05 0.05 93 1015.8
20260903033544 59 311 2.0 7.0 0.00 0.05 0.05 93 1015.8
20260903033059 59 319 1.0 4.0 0.00 0.05 0.05 94 1015.7
20260903032544 59 328 1.0 4.0 0.00 0.05 0.05 94 1015.8
20260903032046 59 318 1.0 4.0 0.00 0.05 0.05 95 1015.8
20260903031605 59 330 1.0 4.0 0.00 0.05 0.05 95 1015.8
20260903031049 59 335 1.0 4.0 0.00 0.05 0.05 95 1016.1
20260903030549 59 320 1.0 5.0 0.00 0.05 0.05 95 1016.0
20260903030058 59 316 1.0 5.0 0.00 0.05 0.05 95 1016.5
20260903025541 59 327 2.0 5.0 0.00 0.05 0.05 95 1016.5
20260903025044 59 360 0.0 4.0 0.00 0.05 0.05 95 1016.8
20260903024555 59 14 1.0 4.0 0.00 0.05 0.05 95 1016.8
20260903024045 59 349 1.0 5.0 0.00 0.05 0.05 95 1016.8
20260903023545 59 328 1.0 5.0 0.00 0.05 0.05 94 1016.9
20260903023102 59 355 1.0 4.0 0.00 0.05 0.05 94 1016.8
20260903022547 59 56 1.0 5.0 0.00 0.05 0.05 94 1016.8
20260903022048 59 358 1.0 5.0 0.00 0.05 0.05 94 1017.0
20260903021558 60 30 1.0 3.0 0.00 0.05 0.05 94 1016.9
20260903021047 60 347 1.0 3.0 0.00 0.05 0.05 94 1017.0
20260903020544 60 342 1.0 3.0 0.00 0.05 0.05 94 1016.8
20260903020105 60 33 1.0 4.0 0.00 0.05 0.05 93 1016.9
20260903015546 60 1 1.0 4.0 0.00 0.05 0.05 93 1017.2
20260903015044 60 334 1.0 6.0 0.00 0.05 0.05 92 1017.4
20260903014625 60 336 1.0 6.0 0.00 0.05 0.05 92 1017.4
20260903014048 60 298 1.0 4.0 0.00 0.05 0.05 93 1017.6
20260903013545 60 30 1.0 4.0 0.00 0.05 0.05 92 1017.6
20260903013106 61 2 1.0 4.0 0.00 0.05 0.05 92 1017.6
20260903012545 61 339 1.0 4.0 0.00 0.05 0.05 92 1017.5
20260903012045 61 337 1.0 3.0 0.00 0.05 0.05 93 1017.6
20260903011602 61 360 0.0 3.0 0.00 0.05 0.05 93 1017.5
20260903011047 61 356 1.0 3.0 0.00 0.05 0.05 93 1017.4
20260903010544 61 0 1.0 5.0 0.00 0.05 0.05 93 1017.4
20260903005548 61 269 2.0 6.0 0.00 0.05 0.05 93 1017.4
20260903005044 61 0 1.0 4.0 0.00 0.05 0.05 93 1017.5
20260903004603 61 31 0.0 4.0 0.00 0.05 0.05 93 1017.4
20260903004045 61 338 0.0 4.0 0.00 0.05 0.05 93 1017.4
20260903003545 61 346 1.0 5.0 0.00 0.05 0.05 93 1017.4
20260903003109 61 322 1.0 5.0 0.00 0.05 0.05 93 1017.4
20260903002544 61 349 1.0 4.0 0.00 0.05 0.05 93 1017.1
20260903002045 61 360 1.0 5.0 0.00 0.05 0.05 93 1016.9
20260903001600 61 341 1.0 5.0 0.00 0.05 0.05 93 1017.0
20260903001044 61 322 0.0 4.0 0.00 0.05 0.05 93 1017.1
20260903000545 61 307 1.0 3.0 0.00 0.05 0.05 93 1017.3
20260903000111 61 348 1.0 4.0 0.00 0.05 0.05 93 1017.2
20260902235545 61 1 1.0 4.0 0.00 0.05 0.05 93 1017.1
20260902235044 61 13 0.0 3.0 0.00 0.05 0.05 93 1017.3
20260902234605 61 293 0.0 4.0 0.00 0.05 0.05 92 1017.1
20260902234047 61 349 1.0 4.0 0.00 0.05 0.05 92 1017.2
20260902233543 61 281 0.0 4.0 0.00 0.05 0.05 92 1017.1
20260902233102 61 309 1.0 4.0 0.00 0.05 0.05 92 1017.1
20260902232544 61 311 1.0 3.0 0.00 0.05 0.05 92 1017.1
20260902232044 61 337 1.0 4.0 0.00 0.05 0.05 92 1017.1
20260902231606 61 297 1.0 5.0 0.00 0.05 0.05 91 1017.4
20260902231045 61 290 1.0 6.0 0.00 0.05 0.05 91 1017.4
20260902230544 61 324 0.0 6.0 0.00 0.05 0.05 91 1017.7
20260902230118 61 0 1.0 6.0 0.00 0.05 0.05 91 1017.7
20260902225546 61 323 1.0 4.0 0.00 0.05 0.05 91 1017.7
20260902225041 61 21 1.0 4.0 0.00 0.05 0.05 91 1017.4
20260902224615 61 17 1.0 6.0 0.00 0.05 0.05 91 1017.9
20260902224046 61 98 1.0 6.0 0.00 0.05 0.05 91 1018.3
20260902223547 61 293 1.0 4.0 0.00 0.05 0.05 91 1018.2
20260902223112 61 319 1.0 3.0 0.00 0.05 0.05 91 1018.6
20260902222545 61 302 0.0 3.0 0.00 0.05 0.05 91 1018.9
20260902222044 61 239 0.0 5.0 0.00 0.05 0.05 90 1019.1
20260902221608 61 331 1.0 5.0 0.00 0.05 0.05 90 1019.1
20260902221044 61 326 1.0 3.0 0.00 0.05 0.05 90 1018.9
20260902220544 61 337 0.0 2.0 0.00 0.05 0.05 90 1019.0
20260902220106 61 310 0.0 5.0 0.00 0.05 0.05 91 1019.2
20260902215544 61 309 1.0 5.0 0.00 0.05 0.05 90 1019.1
20260902215047 61 44 0.0 3.0 0.00 0.05 0.05 90 1019.2
20260902214619 61 340 0.0 3.0 0.00 0.05 0.05 90 1019.3
20260902214046 61 354 0.0 3.0 0.00 0.05 0.05 90 1019.3
20260902213544 62 353 0.0 3.0 0.00 0.05 0.05 90 1019.3
20260902213057 62 0 0.0 3.0 0.00 0.05 0.05 90 1019.2
20260902212543 62 285 0.0 3.0 0.00 0.05 0.05 90 1019.3
20260902212045 62 0 0.0 4.0 0.00 0.05 0.05 90 1019.3
20260902211556 62 0 0.0 4.0 0.00 0.05 0.05 89 1019.2
20260902211041 62 140 0.0 3.0 0.00 0.05 0.05 90 1018.9
20260902210549 62 188 0.0 3.0 0.00 0.05 0.05 90 1019.0
20260902210058 62 340 0.0 3.0 0.00 0.05 0.05 89 1019.1
20260902205544 62 0 1.0 3.0 0.00 0.05 0.05 89 1019.1
20260902205044 62 29 0.0 3.0 0.00 0.05 0.05 89 1019.2
20260902204606 62 0 0.0 5.0 0.00 0.05 0.05 89 1019.4
20260902204045 62 70 0.0 5.0 0.00 0.05 0.05 89 1019.2
20260902203544 62 105 1.0 6.0 0.00 0.05 0.05 89 1019.4
20260902203058 62 0 1.0 6.0 0.00 0.05 0.05 88 1019.5
20260902202544 62 172 0.0 5.0 0.00 0.05 0.05 88 1019.5
20260902202046 63 232 1.0 6.0 0.00 0.05 0.05 87 1019.5
20260902201626 63 351 1.0 6.0 0.00 0.05 0.05 88 1019.4
20260902201045 63 262 0.0 4.0 0.00 0.05 0.05 87 1019.6
20260902200545 63 13 1.0 4.0 0.00 0.05 0.05 87 1019.5
20260902200108 63 299 1.0 4.0 0.00 0.05 0.05 87 1019.5
20260902195544 63 295 0.0 4.0 0.00 0.05 0.05 87 1019.4
20260902195044 63 300 0.0 4.0 0.00 0.05 0.05 86 1019.7
20260902194558 64 72 1.0 4.0 0.00 0.05 0.05 86 1019.8
20260902194045 64 284 0.0 3.0 0.00 0.05 0.05 85 1019.6
20260902193549 64 324 0.0 4.0 0.00 0.05 0.05 85 1019.7
20260902193101 64 37 0.0 4.0 0.00 0.05 0.05 84 1019.6
20260902192544 64 277 0.0 6.0 0.00 0.05 0.05 85 1019.7
20260902192045 64 227 1.0 6.0 0.00 0.05 0.05 83 1019.6
20260902191556 65 250 1.0 4.0 0.00 0.05 0.05 83 1019.5
20260902191044 65 249 1.0 8.0 0.00 0.05 0.05 82 1019.6
20260902190544 65 250 1.0 8.0 0.00 0.05 0.05 83 1019.7
20260902190100 66 307 1.0 6.0 0.00 0.05 0.05 82 1019.5
20260902185544 66 344 1.0 6.0 0.00 0.05 0.05 80 1019.7
20260902185041 66 299 1.0 6.0 0.00 0.05 0.05 83 1019.8
20260902184559 66 244 1.0 6.0 0.00 0.05 0.05 84 1019.9
20260902184045 65 343 0.0 3.0 0.00 0.05 0.05 84 1019.8
20260902183545 65 345 0.0 3.0 0.00 0.05 0.05 82 1019.8
20260902183103 65 300 0.0 2.0 0.00 0.05 0.05 83 1020.0
20260902182544 65 349 0.0 2.0 0.00 0.05 0.05 82 1020.3
20260902182045 65 228 1.0 2.0 0.00 0.05 0.05 81 1020.1
20260902181557 65 243 0.0 6.0 0.00 0.05 0.05 82 1020.2
20260902181044 65 163 1.0 6.0 0.00 0.05 0.05 82 1020.4
20260902180541 66 0 1.0 3.0 0.00 0.05 0.05 83 1020.2
20260902180055 65 274 1.0 3.0 0.00 0.05 0.05 82 1020.1
20260902175545 65 276 0.0 3.0 0.00 0.05 0.05 82 1020.5
20260902175045 65 275 0.0 6.0 0.00 0.05 0.05 82 1020.5
20260902174603 65 0 1.0 6.0 0.00 0.05 0.05 81 1020.4
20260902174048 66 340 0.0 4.0 0.00 0.05 0.05 81 1020.2
20260902173545 66 281 0.0 5.0 0.00 0.05 0.05 82 1020.4
20260902173059 66 275 0.0 5.0 0.00 0.05 0.05 83 1020.5
20260902172541 66 283 0.0 4.0 0.00 0.05 0.05 82 1020.3
20260902172046 65 319 0.0 4.0 0.00 0.05 0.05 82 1020.2
20260902171558 65 329 0.0 5.0 0.00 0.05 0.05 81 1020.4
20260902171041 65 313 1.0 5.0 0.00 0.05 0.05 81 1020.4
20260902170544 65 274 1.0 5.0 0.00 0.05 0.05 79 1020.2
20260902170104 65 347 1.0 6.0 0.00 0.05 0.05 80 1020.3
20260902165546 65 279 1.0 7.0 0.00 0.05 0.05 82 1020.2
20260902165045 65 330 1.0 7.0 0.00 0.05 0.05 82 1020.4
20260902164604 65 0 1.0 6.0 0.00 0.05 0.05 80 1020.5
20260902164044 65 309 1.0 6.0 0.00 0.05 0.05 81 1020.5
20260902163545 65 271 1.0 4.0 0.00 0.05 0.05 82 1020.6
20260902163055 64 323 1.0 3.0 0.00 0.05 0.05 81 1020.7
20260902162545 64 307 1.0 3.0 0.00 0.05 0.05 81 1020.7
20260902162045 64 309 1.0 3.0 0.00 0.05 0.05 81 1020.8
20260902161604 64 267 0.0 5.0 0.00 0.05 0.05 85 1020.7
20260902161045 63 319 0.0 7.0 0.00 0.05 0.05 84 1020.7
20260902160544 63 298 1.0 7.0 0.00 0.05 0.05 82 1020.8
20260902160059 63 0 1.0 7.0 0.00 0.05 0.05 83 1020.8
20260902155544 63 354 1.0 3.0 0.00 0.05 0.05 83 1020.7
20260902155045 63 293 0.0 2.0 0.00 0.05 0.05 85 1020.7
20260902154556 63 297 0.0 4.0 0.00 0.05 0.05 84 1020.7
20260902154045 63 295 1.0 4.0 0.00 0.05 0.05 85 1020.7
20260902153545 62 288 0.0 2.0 0.00 0.05 0.05 87 1020.8
20260902153113 62 278 0.0 2.0 0.00 0.05 0.05 87 1021.0
20260902152544 62 0 0.0 4.0 0.00 0.05 0.05 86 1021.0
20260902152045 62 250 0.0 4.0 0.00 0.05 0.05 87 1021.1
20260902151558 62 160 0.0 4.0 0.00 0.05 0.05 88 1021.1
20260902151044 62 302 0.0 4.0 0.00 0.05 0.05 87 1021.0
20260902150546 62 87 0.0 4.0 0.00 0.05 0.05 89 1021.0
20260902150056 62 70 0.0 3.0 0.00 0.05 0.05 87 1021.4
20260902145545 61 333 0.0 3.0 0.00 0.05 0.05 87 1021.4
20260902145046 61 33 1.0 4.0 0.00 0.05 0.05 89 1021.4
20260902144602 62 8 0.0 4.0 0.00 0.05 0.05 88 1021.5
20260902144045 62 286 0.0 4.0 0.00 0.05 0.05 88 1021.3
20260902143547 62 338 1.0 4.0 0.00 0.05 0.05 87 1021.2
20260902143055 62 319 0.0 4.0 0.00 0.05 0.05 88 1021.4
20260902142546 61 85 1.0 4.0 0.00 0.05 0.05 89 1021.1
20260902142045 61 333 1.0 3.0 0.00 0.05 0.05 89 1021.0
20260902141602 61 324 0.0 3.0 0.00 0.05 0.05 91 1020.8
20260902141044 61 360 0.0 8.0 0.00 0.05 0.05 91 1021.0
20260902140545 61 49 0.0 8.0 0.00 0.05 0.05 90 1021.0
20260902135545 61 283 0.0 3.0 0.00 0.07 0.05 91 1020.9
20260902135045 61 0 0.0 3.0 0.00 0.07 0.05 90 1020.8
20260902134600 61 281 0.0 3.0 0.00 0.07 0.05 91 1020.8
20260902134044 61 257 0.0 3.0 0.00 0.07 0.05 91 1020.8
20260902133545 61 12 1.0 3.0 0.00 0.07 0.05 92 1020.8
20260902133103 61 325 1.0 3.0 0.00 0.07 0.05 90 1020.7
20260902132546 61 278 0.0 4.0 0.00 0.07 0.05 92 1020.8
20260902132044 60 292 0.0 4.0 0.00 0.07 0.05 92 1020.5
20260902131600 60 0 1.0 4.0 0.00 0.07 0.05 93 1020.7
20260902131046 60 308 0.0 2.0 0.00 0.07 0.05 94 1020.5
20260902130546 60 309 0.0 1.0 0.00 0.07 0.05 95 1020.6
20260902125546 59 0 0.0 1.0 0.00 0.07 0.05 95 1020.5
20260902125045 59 295 0.0 2.0 0.00 0.07 0.05 95 1020.6
20260902124555 59 0 0.0 2.0 0.00 0.07 0.05 95 1020.7
20260902124044 59 0 0.0 2.0 0.00 0.07 0.05 95 1020.7
20260902123544 58 347 0.0 2.0 0.00 0.07 0.05 96 1020.8
20260902123106 58 351 0.0 2.0 0.00 0.07 0.05 96 1020.8
20260902122546 58 323 0.0 1.0 0.00 0.07 0.05 96 1020.8
20260902122043 58 269 0.0 3.0 0.00 0.07 0.05 96 1020.8
20260902121608 58 0 0.0 3.0 0.00 0.07 0.05 96 1020.9
20260902121045 58 266 0.0 3.0 0.00 0.07 0.05 96 1020.8
20260902120547 58 319 0.0 2.0 0.00 0.07 0.05 96 1020.8
20260902120104 58 15 0.0 2.0 0.00 0.07 0.05 96 1020.8
20260902115544 58 0 0.0 2.0 0.00 0.09 0.05 97 1020.7
20260902115044 58 0 0.0 2.0 0.00 0.09 0.05 97 1020.7
20260902114556 58 0 0.0 2.0 0.00 0.09 0.05 97 1020.8
20260902114044 57 303 0.0 2.0 0.00 0.09 0.05 97 1020.8
20260902113545 57 273 0.0 2.0 0.00 0.09 0.05 97 1020.8
20260902113107 57 68 0.0 3.0 0.00 0.09 0.05 97 1020.9
20260902112545 57 37 0.0 3.0 0.00 0.09 0.05 97 1020.8
20260902112044 57 330 0.0 2.0 0.00 0.09 0.05 97 1020.8
20260902111556 57 0 0.0 2.0 0.00 0.09 0.05 97 1020.9
20260902111045 57 0 0.0 2.0 0.00 0.09 0.05 97 1021.1
20260902110546 57 0 0.0 2.0 0.00 0.09 0.05 97 1021.0
20260902110059 57 0 0.0 2.0 0.00 0.09 0.05 97 1021.0
20260902105542 57 0 0.0 2.0 0.00 0.10 0.05 97 1020.8
20260902105046 57 0 0.0 2.0 0.00 0.10 0.05 97 1020.9
20260902104609 57 317 0.0 5.0 0.00 0.10 0.05 97 1020.7
20260902104047 57 316 0.0 5.0 0.00 0.10 0.05 97 1020.7
20260902103546 57 327 0.0 2.0 0.00 0.10 0.05 97 1020.6
20260902103101 57 319 0.0 2.0 0.00 0.10 0.05 97 1020.6
20260902102549 57 319 0.0 2.0 0.00 0.10 0.05 97 1020.6
20260902102045 57 0 0.0 4.0 0.00 0.10 0.05 97 1020.7
20260902101556 57 0 0.0 4.0 0.00 0.10 0.05 97 1020.7
20260902101047 57 345 0.0 2.0 0.00 0.10 0.05 97 1020.7